createdAt,value
2022-10-22T00:00:20.566Z,14.50
2022-10-22T00:04:02.711Z,14.50
2022-10-22T00:07:44.678Z,14.40
2022-10-22T00:11:26.676Z,14.30
2022-10-22T00:15:08.908Z,14.30
2022-10-22T00:18:51.722Z,14.20
2022-10-22T00:22:34.265Z,14.30
2022-10-22T00:26:16.279Z,14.30
2022-10-22T00:29:58.176Z,14.30
2022-10-22T00:33:40.352Z,14.30
2022-10-22T00:37:22.236Z,14.20
2022-10-22T00:41:04.298Z,14.30
2022-10-22T00:45:25.241Z,14.30
2022-10-22T00:49:07.356Z,14.40
2022-10-22T00:52:50.482Z,14.30
2022-10-22T00:56:33.240Z,14.20
2022-10-22T01:00:15.697Z,14.20
2022-10-22T01:03:58.389Z,14.20
2022-10-22T01:07:48.181Z,14.30
2022-10-22T01:12:00.291Z,14.30
2022-10-22T01:16:00.218Z,14.40
2022-10-22T01:20:09.664Z,14.50
2022-10-22T01:24:15.564Z,14.50
2022-10-22T01:28:42.784Z,14.50
2022-10-22T01:32:26.641Z,14.50
2022-10-22T01:36:09.668Z,14.50
2022-10-22T01:39:53.245Z,14.50
2022-10-22T01:43:35.161Z,14.50
2022-10-22T01:47:32.763Z,14.50
2022-10-22T01:51:39.420Z,14.50
2022-10-22T01:55:36.036Z,14.40
2022-10-22T01:59:36.487Z,14.40
2022-10-22T02:03:26.812Z,14.40
2022-10-22T02:07:13.053Z,14.30
2022-10-22T02:10:55.203Z,14.20
2022-10-22T02:14:41.334Z,14.20
2022-10-22T02:18:25.249Z,14.00
2022-10-22T02:22:07.667Z,14.00
2022-10-22T02:25:56.391Z,13.90
2022-10-22T02:29:43.719Z,13.80
2022-10-22T02:33:33.358Z,13.70
2022-10-22T02:37:16.962Z,13.60
2022-10-22T02:40:59.338Z,13.50
2022-10-22T02:44:41.339Z,13.50
2022-10-22T02:48:23.239Z,13.50
2022-10-22T02:52:05.360Z,13.30
2022-10-22T02:55:47.267Z,13.30
2022-10-22T02:59:29.423Z,13.20
2022-10-22T03:03:11.423Z,13.20
2022-10-22T03:06:53.628Z,13.20
2022-10-22T03:10:35.599Z,13.10
2022-10-22T03:14:17.621Z,13.10
2022-10-22T03:17:59.550Z,13.00
2022-10-22T03:21:46.421Z,13.00
2022-10-22T03:25:31.192Z,13.00
2022-10-22T03:29:15.702Z,12.90
2022-10-22T03:32:57.716Z,12.90
2022-10-22T03:36:41.220Z,12.80
2022-10-22T03:40:23.379Z,12.80
2022-10-22T03:44:06.156Z,12.80
2022-10-22T03:47:48.076Z,12.70
2022-10-22T03:51:30.394Z,12.60
2022-10-22T03:55:12.296Z,12.60
2022-10-22T03:58:57.488Z,12.60
2022-10-22T04:02:39.600Z,12.50
2022-10-22T04:06:21.892Z,12.50
2022-10-22T04:10:04.735Z,12.50
2022-10-22T04:13:46.707Z,12.50
2022-10-22T04:17:35.064Z,12.40
2022-10-22T04:21:19.187Z,12.30
2022-10-22T04:25:01.236Z,12.30
2022-10-22T04:28:43.823Z,12.20
2022-10-22T04:32:27.212Z,12.20
2022-10-22T04:36:19.361Z,12.20
2022-10-22T04:40:01.439Z,12.10
2022-10-22T04:43:43.510Z,12.20
2022-10-22T04:47:25.416Z,12.20
2022-10-22T04:51:09.452Z,12.20
2022-10-22T04:54:51.374Z,12.20
2022-10-22T04:58:33.448Z,12.30
2022-10-22T05:02:15.551Z,12.30
2022-10-22T05:06:01.360Z,12.30
2022-10-22T05:09:43.442Z,12.30
2022-10-22T05:13:25.363Z,12.30
2022-10-22T05:17:07.657Z,12.30
2022-10-22T05:20:49.589Z,12.30
2022-10-22T05:24:33.240Z,12.30
2022-10-22T05:28:15.148Z,12.20
2022-10-22T05:31:57.140Z,12.20
2022-10-22T05:35:38.991Z,12.20
2022-10-22T05:39:20.955Z,12.20
2022-10-22T05:43:02.890Z,12.20
2022-10-22T05:46:45.125Z,12.20
2022-10-22T05:50:27.019Z,12.20
2022-10-22T05:54:14.497Z,12.10
2022-10-22T05:57:56.394Z,12.10
2022-10-22T06:01:39.623Z,12.10
2022-10-22T06:05:21.808Z,12.00
2022-10-22T06:09:13.674Z,12.00
2022-10-22T06:12:55.633Z,12.00
2022-10-22T06:16:37.689Z,12.00
2022-10-22T06:20:19.528Z,12.00
2022-10-22T06:24:03.279Z,11.90
2022-10-22T06:27:49.887Z,11.90
2022-10-22T06:31:37.001Z,11.80
2022-10-22T06:35:19.205Z,11.80
2022-10-22T06:39:01.084Z,11.80
2022-10-22T06:42:43.280Z,11.80
2022-10-22T06:46:26.510Z,11.70
2022-10-22T06:50:08.635Z,11.70
2022-10-22T06:53:50.988Z,11.60
2022-10-22T06:57:33.238Z,11.70
2022-10-22T07:01:17.439Z,11.70
2022-10-22T07:04:59.405Z,11.70
2022-10-22T07:08:42.591Z,11.70
2022-10-22T07:12:27.574Z,11.70
2022-10-22T07:16:12.930Z,11.70
2022-10-22T07:19:54.867Z,11.70
2022-10-22T07:23:37.797Z,11.80
2022-10-22T07:27:23.442Z,11.80
2022-10-22T07:31:07.993Z,11.90
2022-10-22T07:34:50.049Z,11.90
2022-10-22T07:38:36.632Z,12.00
2022-10-22T07:42:20.654Z,12.00
2022-10-22T07:46:13.754Z,12.10
2022-10-22T07:50:02.169Z,12.10
2022-10-22T07:53:59.798Z,12.20
2022-10-22T08:01:39.211Z,12.40
2022-10-22T08:05:30.088Z,12.50
2022-10-22T08:09:12.559Z,12.60
2022-10-22T08:12:55.960Z,12.70
2022-10-22T08:16:40.787Z,12.80
2022-10-22T08:20:24.215Z,13.00
2022-10-22T08:27:49.925Z,13.10
2022-10-22T08:35:14.218Z,13.40
2022-10-22T08:39:01.183Z,13.60
2022-10-22T08:43:00.273Z,13.80
2022-10-22T08:47:17.512Z,14.00
2022-10-22T08:51:02.136Z,14.30
2022-10-22T08:54:50.857Z,14.50
2022-10-22T08:58:38.894Z,14.70
2022-10-22T09:06:32.399Z,15.00
2022-10-22T09:10:14.756Z,15.10
2022-10-22T09:13:58.044Z,15.30
2022-10-22T09:18:18.168Z,15.70
2022-10-22T09:22:08.906Z,16.20
2022-10-22T09:25:56.083Z,16.40
2022-10-22T09:29:38.813Z,16.50
2022-10-22T09:33:36.556Z,16.70
2022-10-22T09:37:27.031Z,17.00
2022-10-22T09:41:09.509Z,17.40
2022-10-22T09:45:02.387Z,18.10
2022-10-22T09:49:20.350Z,18.60
2022-10-22T09:53:14.772Z,18.70
2022-10-22T09:57:08.798Z,18.50
2022-10-22T10:01:00.838Z,18.50
2022-10-22T10:04:48.249Z,18.30
2022-10-22T10:08:37.963Z,18.20
2022-10-22T10:12:53.317Z,18.40
2022-10-22T10:17:13.512Z,18.90
2022-10-22T10:21:03.559Z,19.10
2022-10-22T10:25:13.722Z,19.50
2022-10-22T10:29:08.532Z,20.00
2022-10-22T10:33:28.616Z,20.10
2022-10-22T10:37:23.737Z,20.00
2022-10-22T10:41:29.540Z,19.90
2022-10-22T10:45:35.833Z,19.80
2022-10-22T10:49:24.576Z,19.80
2022-10-22T10:53:44.198Z,19.80
2022-10-22T10:57:38.086Z,19.50
2022-10-22T11:01:59.022Z,19.20
2022-10-22T11:06:00.601Z,19.90
2022-10-22T11:10:07.661Z,21.50
2022-10-22T11:14:18.744Z,22.60
2022-10-22T11:18:20.228Z,22.60
2022-10-22T11:22:16.198Z,22.00
2022-10-22T11:25:59.982Z,21.20
2022-10-22T11:29:47.565Z,20.80
2022-10-22T11:33:44.186Z,20.40
2022-10-22T11:37:35.305Z,20.20
2022-10-22T11:41:22.302Z,20.10
2022-10-22T11:45:29.992Z,20.30
2022-10-22T11:49:14.819Z,20.50
2022-10-22T11:53:04.359Z,20.40
2022-10-22T11:56:53.251Z,20.50
2022-10-22T12:00:46.440Z,20.60
2022-10-22T12:04:42.068Z,20.50
2022-10-22T12:08:26.493Z,20.10
2022-10-22T12:12:16.182Z,19.80
2022-10-22T12:16:02.065Z,19.60
2022-10-22T12:19:47.147Z,19.30
2022-10-22T12:23:41.532Z,19.40
2022-10-22T12:27:33.229Z,19.60
2022-10-22T12:31:24.241Z,19.90
2022-10-22T12:35:17.139Z,20.00
2022-10-22T12:39:12.812Z,20.20
2022-10-22T12:42:56.614Z,20.50
2022-10-22T12:46:38.770Z,20.50
2022-10-22T12:50:29.448Z,20.30
2022-10-22T12:54:24.269Z,20.10
2022-10-22T12:58:19.356Z,19.80
2022-10-22T13:02:06.748Z,19.60
2022-10-22T13:05:51.125Z,19.40
2022-10-22T13:09:54.255Z,19.30
2022-10-22T13:13:43.921Z,19.20
2022-10-22T13:21:52.063Z,19.10
2022-10-22T13:25:37.737Z,19.10
2022-10-22T13:29:22.784Z,19.10
2022-10-22T13:33:06.486Z,19.10
2022-10-22T13:36:57.077Z,19.10
2022-10-22T13:40:43.303Z,19.10
2022-10-22T13:44:26.861Z,19.10
2022-10-22T13:48:22.300Z,19.10
2022-10-22T13:52:17.316Z,19.30
2022-10-22T13:55:59.453Z,19.30
2022-10-22T13:59:47.324Z,19.20
2022-10-22T14:03:32.406Z,19.10
2022-10-22T14:07:18.284Z,19.00
2022-10-22T14:11:00.362Z,18.90
2022-10-22T14:14:42.742Z,18.90
2022-10-22T14:18:31.591Z,18.80
2022-10-22T14:22:26.477Z,18.70
2022-10-22T14:26:23.356Z,18.60
2022-10-22T14:30:05.980Z,18.60
2022-10-22T14:33:49.345Z,18.60
2022-10-22T14:37:31.440Z,18.60
2022-10-22T14:41:24.795Z,18.60
2022-10-22T14:45:07.646Z,18.60
2022-10-22T14:48:49.829Z,18.60
2022-10-22T14:52:31.727Z,18.60
2022-10-22T14:56:17.842Z,18.60
2022-10-22T14:59:59.843Z,18.50
2022-10-22T15:03:42.030Z,18.40
2022-10-22T15:08:01.424Z,18.40
2022-10-22T15:11:43.734Z,18.30
2022-10-22T15:15:29.564Z,18.20
2022-10-22T15:19:17.284Z,18.20
2022-10-22T15:22:59.678Z,18.10
2022-10-22T15:26:41.876Z,18.10
2022-10-22T15:30:23.722Z,18.10
2022-10-22T15:34:06.606Z,18.10
2022-10-22T15:37:51.729Z,18.10
2022-10-22T15:41:33.845Z,18.10
2022-10-22T15:45:16.084Z,18.10
2022-10-22T15:48:58.304Z,18.00
2022-10-22T15:52:40.211Z,18.00
2022-10-22T15:56:24.033Z,17.90
2022-10-22T16:00:08.262Z,17.90
2022-10-22T16:04:02.938Z,17.80
2022-10-22T16:07:45.387Z,17.70
2022-10-22T16:11:28.874Z,17.70
2022-10-22T16:15:19.830Z,17.70
2022-10-22T16:19:04.501Z,17.70
2022-10-22T16:22:50.137Z,17.60
2022-10-22T16:26:33.301Z,17.50
2022-10-22T16:30:19.618Z,17.50
2022-10-22T16:34:01.598Z,17.40
2022-10-22T16:37:43.961Z,17.30
2022-10-22T16:41:36.192Z,17.30
2022-10-22T16:45:21.715Z,17.20
2022-10-22T16:49:04.500Z,17.20
2022-10-22T16:52:50.956Z,17.10
2022-10-22T16:56:36.357Z,17.10
2022-10-22T17:00:20.672Z,17.10
2022-10-22T17:04:04.673Z,17.10
2022-10-22T17:07:47.478Z,17.10
2022-10-22T17:11:36.466Z,17.10
2022-10-22T17:15:21.341Z,17.00
2022-10-22T17:19:04.906Z,17.00
2022-10-22T17:22:50.340Z,17.00
2022-10-22T17:26:34.773Z,17.00
2022-10-22T17:30:26.463Z,16.90
2022-10-22T17:34:16.864Z,16.70
2022-10-22T17:38:00.423Z,16.50
2022-10-22T17:41:42.488Z,16.50
2022-10-22T17:45:33.671Z,16.40
2022-10-22T17:49:26.103Z,16.30
2022-10-22T17:53:08.292Z,16.30
2022-10-22T17:56:52.814Z,16.30
2022-10-22T18:00:36.213Z,16.20
2022-10-22T18:04:19.786Z,16.20
2022-10-22T18:08:07.693Z,16.20
2022-10-22T18:11:53.723Z,16.20
2022-10-22T18:15:40.789Z,16.10
2022-10-22T18:19:25.024Z,16.20
2022-10-22T18:23:13.853Z,16.10
2022-10-22T18:26:58.537Z,16.10
2022-10-22T18:30:43.409Z,16.10
2022-10-22T18:34:25.631Z,16.00
2022-10-22T18:38:12.934Z,16.00
2022-10-22T18:41:54.944Z,16.00
2022-10-22T18:45:48.833Z,16.00
2022-10-22T18:49:31.981Z,16.00
2022-10-22T18:53:15.453Z,16.00
2022-10-22T18:57:02.835Z,16.00
2022-10-22T19:00:53.332Z,16.00
2022-10-22T19:04:38.422Z,16.00
2022-10-22T19:08:21.624Z,16.00
2022-10-22T19:12:04.296Z,15.90
2022-10-22T19:15:47.832Z,15.90
2022-10-22T19:19:29.956Z,16.00
2022-10-22T19:23:12.093Z,15.90
2022-10-22T19:26:54.487Z,16.00
2022-10-22T19:30:40.930Z,15.90
2022-10-22T19:34:24.429Z,15.90
2022-10-22T19:38:07.549Z,15.90
2022-10-22T19:41:50.385Z,15.90
2022-10-22T19:45:35.411Z,15.90
2022-10-22T19:49:22.963Z,15.90
2022-10-22T20:00:53.123Z,15.80
2022-10-22T20:04:36.415Z,15.80
2022-10-22T20:08:18.544Z,15.80
2022-10-22T20:12:05.841Z,15.80
2022-10-22T20:15:49.917Z,15.80
2022-10-22T20:19:36.863Z,15.80
2022-10-22T20:23:21.295Z,15.90
2022-10-22T20:27:03.751Z,15.90
2022-10-22T20:30:48.998Z,15.90
2022-10-22T20:34:31.416Z,15.90
2022-10-22T20:38:17.307Z,15.90
2022-10-22T20:41:59.272Z,15.90
2022-10-22T20:45:41.669Z,15.90
2022-10-22T20:49:23.635Z,15.90
2022-10-22T20:53:06.805Z,15.90
2022-10-22T20:56:48.871Z,15.90
2022-10-22T21:00:36.113Z,15.90
2022-10-22T21:04:24.983Z,15.90
2022-10-22T21:08:08.470Z,15.90
2022-10-22T21:11:57.224Z,15.90
2022-10-22T21:15:41.848Z,15.90
2022-10-22T21:19:24.977Z,15.90
2022-10-22T21:23:18.466Z,15.90
2022-10-22T21:27:00.428Z,15.90
2022-10-22T21:30:50.633Z,15.80
2022-10-22T21:34:39.055Z,15.80
2022-10-22T21:38:25.634Z,15.80
2022-10-22T21:42:07.656Z,15.80
2022-10-22T21:45:51.563Z,15.80
2022-10-22T21:49:35.093Z,15.70
2022-10-22T21:53:17.219Z,15.60
2022-10-22T21:57:01.203Z,15.60
2022-10-22T22:00:43.226Z,15.60
2022-10-22T22:04:25.763Z,15.50
2022-10-22T22:08:09.411Z,15.40
2022-10-22T22:11:57.370Z,15.50
2022-10-22T22:15:42.048Z,15.50
2022-10-22T22:19:44.410Z,15.50
2022-10-22T22:23:27.075Z,15.40
2022-10-22T22:27:17.969Z,15.40
2022-10-22T22:31:00.568Z,15.40
2022-10-22T22:34:52.730Z,15.40
2022-10-22T22:38:34.733Z,15.40
2022-10-22T22:42:16.769Z,15.50
2022-10-22T22:46:42.205Z,15.40
2022-10-22T22:50:25.601Z,15.40
2022-10-22T22:54:07.585Z,15.40
2022-10-22T22:57:57.916Z,15.40
2022-10-22T23:01:40.788Z,15.50
2022-10-22T23:05:31.146Z,15.50
2022-10-22T23:09:16.827Z,15.50
2022-10-22T23:13:02.110Z,15.50
2022-10-22T23:16:54.912Z,15.50
2022-10-22T23:20:45.337Z,15.50
2022-10-22T23:24:29.579Z,15.50
2022-10-22T23:28:11.479Z,15.50
2022-10-22T23:31:55.121Z,15.50
2022-10-22T23:35:41.022Z,15.50
2022-10-22T23:39:48.974Z,15.50
2022-10-22T23:43:33.838Z,15.50
2022-10-22T23:47:25.794Z,15.50
2022-10-22T23:51:10.911Z,15.50
2022-10-22T23:54:54.456Z,15.50
2022-10-22T23:58:40.550Z,15.50
